sensor_id;sensor_type;location;lat;lon;timestamp;temperature;humidity
61253;DHT22;47127;47.516;8.596;2023-02-11T00:01:47;-0.40;99.90
61253;DHT22;47127;47.516;8.596;2023-02-11T00:04:12;-0.50;99.90
61253;DHT22;47127;47.516;8.596;2023-02-11T00:06:38;-0.60;99.90
61253;DHT22;47127;47.516;8.596;2023-02-11T00:09:04;-0.80;99.90
61253;DHT22;47127;47.516;8.596;2023-02-11T00:11:30;-0.70;99.90
61253;DHT22;47127;47.516;8.596;2023-02-11T00:14:01;-0.60;99.90
61253;DHT22;47127;47.516;8.596;2023-02-11T00:16:27;-0.50;99.90
61253;DHT22;47127;47.516;8.596;2023-02-11T00:18:53;-0.40;99.90
61253;DHT22;47127;47.516;8.596;2023-02-11T00:21:22;-0.40;99.90
61253;DHT22;47127;47.516;8.596;2023-02-11T00:23:48;-0.40;99.90
61253;DHT22;47127;47.516;8.596;2023-02-11T00:26:19;-0.40;99.90
61253;DHT22;47127;47.516;8.596;2023-02-11T00:28:46;-0.40;99.90
61253;DHT22;47127;47.516;8.596;2023-02-11T00:31:13;-0.40;99.90
61253;DHT22;47127;47.516;8.596;2023-02-11T00:33:39;-0.50;99.90
61253;DHT22;47127;47.516;8.596;2023-02-11T00:36:07;-0.60;99.90
61253;DHT22;47127;47.516;8.596;2023-02-11T00:38:33;-0.70;99.90
61253;DHT22;47127;47.516;8.596;2023-02-11T00:40:59;-0.70;99.90
61253;DHT22;47127;47.516;8.596;2023-02-11T00:43:24;-0.60;99.90
61253;DHT22;47127;47.516;8.596;2023-02-11T00:45:50;-0.60;99.90
61253;DHT22;47127;47.516;8.596;2023-02-11T00:48:15;-0.60;99.90
61253;DHT22;47127;47.516;8.596;2023-02-11T00:50:41;-0.60;99.90
61253;DHT22;47127;47.516;8.596;2023-02-11T00:53:07;-0.60;99.90
61253;DHT22;47127;47.516;8.596;2023-02-11T00:55:32;-0.70;99.90
61253;DHT22;47127;47.516;8.596;2023-02-11T00:57:58;-0.90;99.90
61253;DHT22;47127;47.516;8.596;2023-02-11T01:00:24;-1.00;99.90
61253;DHT22;47127;47.516;8.596;2023-02-11T01:02:50;-1.10;99.90
61253;DHT22;47127;47.516;8.596;2023-02-11T01:05:16;-1.00;99.90
61253;DHT22;47127;47.516;8.596;2023-02-11T01:07:42;-1.00;99.90
61253;DHT22;47127;47.516;8.596;2023-02-11T01:10:07;-0.90;99.90
61253;DHT22;47127;47.516;8.596;2023-02-11T01:12:33;-0.80;99.90
61253;DHT22;47127;47.516;8.596;2023-02-11T01:14:59;-0.80;99.90
61253;DHT22;47127;47.516;8.596;2023-02-11T01:17:24;-0.70;99.90
61253;DHT22;47127;47.516;8.596;2023-02-11T01:19:50;-0.70;99.90
61253;DHT22;47127;47.516;8.596;2023-02-11T01:22:15;-0.90;99.90
61253;DHT22;47127;47.516;8.596;2023-02-11T01:24:41;-0.90;99.90
61253;DHT22;47127;47.516;8.596;2023-02-11T01:27:06;-0.90;99.90
61253;DHT22;47127;47.516;8.596;2023-02-11T01:29:32;-0.90;99.90
61253;DHT22;47127;47.516;8.596;2023-02-11T01:31:59;-0.80;99.90
61253;DHT22;47127;47.516;8.596;2023-02-11T01:34:25;-0.80;99.90
61253;DHT22;47127;47.516;8.596;2023-02-11T01:36:55;-0.90;99.90
61253;DHT22;47127;47.516;8.596;2023-02-11T01:39:20;-1.00;99.90
61253;DHT22;47127;47.516;8.596;2023-02-11T01:41:46;-1.20;99.90
61253;DHT22;47127;47.516;8.596;2023-02-11T01:44:30;-1.30;99.90
61253;DHT22;47127;47.516;8.596;2023-02-11T01:46:56;-1.30;99.90
61253;DHT22;47127;47.516;8.596;2023-02-11T01:49:26;-1.20;99.90
61253;DHT22;47127;47.516;8.596;2023-02-11T01:54:23;-1.10;99.90
61253;DHT22;47127;47.516;8.596;2023-02-11T01:57:10;-1.10;99.90
61253;DHT22;47127;47.516;8.596;2023-02-11T02:02:41;-1.00;99.90
61253;DHT22;47127;47.516;8.596;2023-02-11T02:10:42;-1.20;99.90
61253;DHT22;47127;47.516;8.596;2023-02-11T02:13:09;-1.10;99.90
61253;DHT22;47127;47.516;8.596;2023-02-11T02:15:40;-1.30;99.90
61253;DHT22;47127;47.516;8.596;2023-02-11T02:35:14;-1.00;99.90
61253;DHT22;47127;47.516;8.596;2023-02-11T02:38:26;-1.10;99.90
61253;DHT22;47127;47.516;8.596;2023-02-11T02:40:56;-1.00;99.90
61253;DHT22;47127;47.516;8.596;2023-02-11T02:43:25;-1.00;99.90
61253;DHT22;47127;47.516;8.596;2023-02-11T02:45:51;-1.00;99.90
61253;DHT22;47127;47.516;8.596;2023-02-11T02:48:28;-1.10;99.90
61253;DHT22;47127;47.516;8.596;2023-02-11T02:54:32;-1.20;99.90
61253;DHT22;47127;47.516;8.596;2023-02-11T02:57:27;-1.10;99.90
61253;DHT22;47127;47.516;8.596;2023-02-11T03:00:40;-1.10;99.90
61253;DHT22;47127;47.516;8.596;2023-02-11T03:03:04;-1.10;99.90
61253;DHT22;47127;47.516;8.596;2023-02-11T03:05:49;-1.00;99.90
61253;DHT22;47127;47.516;8.596;2023-02-11T03:08:24;-1.20;99.90
61253;DHT22;47127;47.516;8.596;2023-02-11T03:10:52;-1.20;99.90
61253;DHT22;47127;47.516;8.596;2023-02-11T03:13:21;-1.20;99.90
61253;DHT22;47127;47.516;8.596;2023-02-11T03:15:51;-1.30;99.90
61253;DHT22;47127;47.516;8.596;2023-02-11T03:18:21;-1.50;99.90
61253;DHT22;47127;47.516;8.596;2023-02-11T03:20:49;-1.60;99.90
61253;DHT22;47127;47.516;8.596;2023-02-11T03:23:27;-1.60;99.90
61253;DHT22;47127;47.516;8.596;2023-02-11T03:26:08;-1.70;99.90
61253;DHT22;47127;47.516;8.596;2023-02-11T03:28:55;-1.60;99.90
61253;DHT22;47127;47.516;8.596;2023-02-11T03:31:49;-1.60;99.90
61253;DHT22;47127;47.516;8.596;2023-02-11T03:37:17;-1.60;99.90
61253;DHT22;47127;47.516;8.596;2023-02-11T03:39:55;-1.70;99.90
61253;DHT22;47127;47.516;8.596;2023-02-11T03:42:25;-1.60;99.90
61253;DHT22;47127;47.516;8.596;2023-02-11T03:44:57;-1.70;99.90
61253;DHT22;47127;47.516;8.596;2023-02-11T03:47:25;-1.80;99.90
61253;DHT22;47127;47.516;8.596;2023-02-11T03:49:54;-1.80;99.90
61253;DHT22;47127;47.516;8.596;2023-02-11T03:52:22;-1.70;99.90
61253;DHT22;47127;47.516;8.596;2023-02-11T03:54:52;-1.70;99.90
61253;DHT22;47127;47.516;8.596;2023-02-11T03:57:20;-1.70;99.90
61253;DHT22;47127;47.516;8.596;2023-02-11T03:59:58;-1.70;99.90
61253;DHT22;47127;47.516;8.596;2023-02-11T04:02:29;-1.70;99.90
61253;DHT22;47127;47.516;8.596;2023-02-11T04:04:56;-1.70;99.90
61253;DHT22;47127;47.516;8.596;2023-02-11T04:07:22;-1.80;99.90
61253;DHT22;47127;47.516;8.596;2023-02-11T04:09:47;-1.90;99.90
61253;DHT22;47127;47.516;8.596;2023-02-11T04:12:13;-1.90;99.90
61253;DHT22;47127;47.516;8.596;2023-02-11T04:14:38;-1.90;99.90
61253;DHT22;47127;47.516;8.596;2023-02-11T04:17:04;-1.90;99.90
61253;DHT22;47127;47.516;8.596;2023-02-11T04:19:31;-1.90;99.90
61253;DHT22;47127;47.516;8.596;2023-02-11T04:21:57;-1.80;99.90
61253;DHT22;47127;47.516;8.596;2023-02-11T04:24:22;-1.80;99.90
61253;DHT22;47127;47.516;8.596;2023-02-11T04:26:48;-1.70;99.90
61253;DHT22;47127;47.516;8.596;2023-02-11T04:29:13;-1.70;99.90
61253;DHT22;47127;47.516;8.596;2023-02-11T04:31:39;-1.60;99.90
61253;DHT22;47127;47.516;8.596;2023-02-11T04:34:04;-1.60;99.90
61253;DHT22;47127;47.516;8.596;2023-02-11T04:36:30;-1.60;99.90
61253;DHT22;47127;47.516;8.596;2023-02-11T04:38:55;-1.50;99.90
61253;DHT22;47127;47.516;8.596;2023-02-11T04:41:21;-1.50;99.90
61253;DHT22;47127;47.516;8.596;2023-02-11T04:43:46;-1.40;99.90
61253;DHT22;47127;47.516;8.596;2023-02-11T04:46:12;-1.30;99.90
61253;DHT22;47127;47.516;8.596;2023-02-11T04:48:37;-1.40;99.90
61253;DHT22;47127;47.516;8.596;2023-02-11T04:51:03;-1.30;99.90
61253;DHT22;47127;47.516;8.596;2023-02-11T04:53:28;-1.40;99.90
61253;DHT22;47127;47.516;8.596;2023-02-11T04:55:54;-1.50;99.90
61253;DHT22;47127;47.516;8.596;2023-02-11T04:58:20;-1.60;99.90
61253;DHT22;47127;47.516;8.596;2023-02-11T05:00:45;-1.60;99.90
61253;DHT22;47127;47.516;8.596;2023-02-11T05:03:11;-1.60;99.90
61253;DHT22;47127;47.516;8.596;2023-02-11T05:05:38;-1.60;99.90
61253;DHT22;47127;47.516;8.596;2023-02-11T05:08:05;-1.70;99.90
61253;DHT22;47127;47.516;8.596;2023-02-11T05:10:30;-1.70;99.90
61253;DHT22;47127;47.516;8.596;2023-02-11T05:12:56;-1.80;99.90
61253;DHT22;47127;47.516;8.596;2023-02-11T05:15:22;-1.80;99.90
61253;DHT22;47127;47.516;8.596;2023-02-11T05:17:47;-1.80;99.90
61253;DHT22;47127;47.516;8.596;2023-02-11T05:20:13;-1.80;99.90
61253;DHT22;47127;47.516;8.596;2023-02-11T05:22:38;-1.80;99.90
61253;DHT22;47127;47.516;8.596;2023-02-11T05:25:04;-1.80;99.90
61253;DHT22;47127;47.516;8.596;2023-02-11T05:27:29;-1.80;99.90
61253;DHT22;47127;47.516;8.596;2023-02-11T05:29:55;-1.80;99.90
61253;DHT22;47127;47.516;8.596;2023-02-11T05:32:21;-1.80;99.90
61253;DHT22;47127;47.516;8.596;2023-02-11T05:34:46;-1.80;99.90
61253;DHT22;47127;47.516;8.596;2023-02-11T05:37:12;-1.80;99.90
61253;DHT22;47127;47.516;8.596;2023-02-11T05:39:37;-1.80;99.90
61253;DHT22;47127;47.516;8.596;2023-02-11T05:42:03;-1.80;99.90
61253;DHT22;47127;47.516;8.596;2023-02-11T05:44:29;-1.80;99.90
61253;DHT22;47127;47.516;8.596;2023-02-11T05:46:54;-1.80;99.90
61253;DHT22;47127;47.516;8.596;2023-02-11T05:49:20;-1.90;99.90
61253;DHT22;47127;47.516;8.596;2023-02-11T05:51:46;-1.90;99.90
61253;DHT22;47127;47.516;8.596;2023-02-11T05:54:11;-2.00;99.90
61253;DHT22;47127;47.516;8.596;2023-02-11T05:56:37;-2.00;99.90
61253;DHT22;47127;47.516;8.596;2023-02-11T05:59:02;-2.00;99.90
61253;DHT22;47127;47.516;8.596;2023-02-11T06:01:28;-1.90;99.90
61253;DHT22;47127;47.516;8.596;2023-02-11T06:03:54;-2.00;99.90
61253;DHT22;47127;47.516;8.596;2023-02-11T06:06:20;-2.00;99.90
61253;DHT22;47127;47.516;8.596;2023-02-11T06:08:45;-2.00;99.90
61253;DHT22;47127;47.516;8.596;2023-02-11T06:11:14;-2.00;99.90
61253;DHT22;47127;47.516;8.596;2023-02-11T06:13:39;-2.00;99.90
61253;DHT22;47127;47.516;8.596;2023-02-11T06:16:05;-2.00;99.90
61253;DHT22;47127;47.516;8.596;2023-02-11T06:18:31;-2.00;99.90
61253;DHT22;47127;47.516;8.596;2023-02-11T06:20:58;-2.00;99.90
61253;DHT22;47127;47.516;8.596;2023-02-11T06:23:23;-2.00;99.90
61253;DHT22;47127;47.516;8.596;2023-02-11T06:25:50;-2.00;99.90
61253;DHT22;47127;47.516;8.596;2023-02-11T06:28:15;-2.10;99.90
61253;DHT22;47127;47.516;8.596;2023-02-11T06:30:41;-2.10;99.90
61253;DHT22;47127;47.516;8.596;2023-02-11T06:33:06;-2.10;99.90
61253;DHT22;47127;47.516;8.596;2023-02-11T06:35:32;-2.20;99.90
61253;DHT22;47127;47.516;8.596;2023-02-11T06:38:00;-2.30;99.90
61253;DHT22;47127;47.516;8.596;2023-02-11T06:40:25;-2.30;99.90
61253;DHT22;47127;47.516;8.596;2023-02-11T06:42:51;-2.50;99.90
61253;DHT22;47127;47.516;8.596;2023-02-11T06:45:16;-2.60;99.90
61253;DHT22;47127;47.516;8.596;2023-02-11T06:47:42;-2.50;99.90
61253;DHT22;47127;47.516;8.596;2023-02-11T06:50:11;-2.40;99.90
61253;DHT22;47127;47.516;8.596;2023-02-11T06:52:37;-2.40;99.90
61253;DHT22;47127;47.516;8.596;2023-02-11T06:55:03;-2.30;99.90
61253;DHT22;47127;47.516;8.596;2023-02-11T06:57:29;-2.20;99.90
61253;DHT22;47127;47.516;8.596;2023-02-11T06:59:55;-2.30;99.90
61253;DHT22;47127;47.516;8.596;2023-02-11T07:02:20;-2.30;99.90
61253;DHT22;47127;47.516;8.596;2023-02-11T07:04:46;-2.30;99.90
61253;DHT22;47127;47.516;8.596;2023-02-11T07:07:11;-2.30;99.90
61253;DHT22;47127;47.516;8.596;2023-02-11T07:09:37;-2.20;99.90
61253;DHT22;47127;47.516;8.596;2023-02-11T07:12:03;-2.20;99.90
61253;DHT22;47127;47.516;8.596;2023-02-11T07:14:28;-2.30;99.90
61253;DHT22;47127;47.516;8.596;2023-02-11T07:16:54;-2.40;99.90
61253;DHT22;47127;47.516;8.596;2023-02-11T07:19:19;-2.30;99.90
61253;DHT22;47127;47.516;8.596;2023-02-11T07:21:45;-2.20;99.90
61253;DHT22;47127;47.516;8.596;2023-02-11T07:24:12;-2.10;99.90
61253;DHT22;47127;47.516;8.596;2023-02-11T07:26:37;-2.10;99.90
61253;DHT22;47127;47.516;8.596;2023-02-11T07:29:03;-2.00;99.90
61253;DHT22;47127;47.516;8.596;2023-02-11T07:31:29;-1.90;99.90
61253;DHT22;47127;47.516;8.596;2023-02-11T07:33:57;-1.90;99.90
61253;DHT22;47127;47.516;8.596;2023-02-11T07:36:24;-1.80;99.90
61253;DHT22;47127;47.516;8.596;2023-02-11T07:38:50;-1.70;99.90
61253;DHT22;47127;47.516;8.596;2023-02-11T07:41:18;-1.70;99.90
61253;DHT22;47127;47.516;8.596;2023-02-11T07:43:45;-1.60;99.90
61253;DHT22;47127;47.516;8.596;2023-02-11T07:48:43;-1.50;99.90
61253;DHT22;47127;47.516;8.596;2023-02-11T07:51:21;-1.30;99.90
61253;DHT22;47127;47.516;8.596;2023-02-11T07:53:47;-1.20;99.90
61253;DHT22;47127;47.516;8.596;2023-02-11T07:56:15;-1.10;99.90
61253;DHT22;47127;47.516;8.596;2023-02-11T07:58:41;-1.00;99.90
61253;DHT22;47127;47.516;8.596;2023-02-11T08:01:10;-0.90;99.90
61253;DHT22;47127;47.516;8.596;2023-02-11T08:03:37;-0.70;99.90
61253;DHT22;47127;47.516;8.596;2023-02-11T08:06:04;-0.50;99.90
61253;DHT22;47127;47.516;8.596;2023-02-11T08:08:30;-0.40;99.90
61253;DHT22;47127;47.516;8.596;2023-02-11T08:10:56;-0.30;99.90
61253;DHT22;47127;47.516;8.596;2023-02-11T08:13:21;-0.30;99.90
61253;DHT22;47127;47.516;8.596;2023-02-11T08:15:47;-0.20;99.90
61253;DHT22;47127;47.516;8.596;2023-02-11T08:18:12;-0.10;99.90
61253;DHT22;47127;47.516;8.596;2023-02-11T08:20:38;0.00;99.90
61253;DHT22;47127;47.516;8.596;2023-02-11T08:23:05;0.20;99.90
61253;DHT22;47127;47.516;8.596;2023-02-11T08:25:31;0.40;99.90
61253;DHT22;47127;47.516;8.596;2023-02-11T08:27:57;0.50;99.90
61253;DHT22;47127;47.516;8.596;2023-02-11T08:30:23;0.60;99.90
61253;DHT22;47127;47.516;8.596;2023-02-11T08:32:49;0.70;99.90
61253;DHT22;47127;47.516;8.596;2023-02-11T08:35:15;0.70;99.90
61253;DHT22;47127;47.516;8.596;2023-02-11T08:37:41;0.80;99.90
61253;DHT22;47127;47.516;8.596;2023-02-11T08:40:06;0.90;99.90
61253;DHT22;47127;47.516;8.596;2023-02-11T08:42:32;0.90;99.90
61253;DHT22;47127;47.516;8.596;2023-02-11T08:44:57;0.80;99.90
61253;DHT22;47127;47.516;8.596;2023-02-11T08:47:23;0.80;99.90
61253;DHT22;47127;47.516;8.596;2023-02-11T08:49:48;0.80;99.90
61253;DHT22;47127;47.516;8.596;2023-02-11T08:52:14;0.80;99.90
61253;DHT22;47127;47.516;8.596;2023-02-11T08:54:39;0.80;99.90
61253;DHT22;47127;47.516;8.596;2023-02-11T08:57:05;0.80;99.90
61253;DHT22;47127;47.516;8.596;2023-02-11T08:59:31;0.80;99.90
61253;DHT22;47127;47.516;8.596;2023-02-11T09:01:57;0.70;99.90
61253;DHT22;47127;47.516;8.596;2023-02-11T09:04:23;0.70;99.90
61253;DHT22;47127;47.516;8.596;2023-02-11T09:06:48;0.70;99.90
61253;DHT22;47127;47.516;8.596;2023-02-11T09:09:15;0.70;99.90
61253;DHT22;47127;47.516;8.596;2023-02-11T09:11:42;0.90;99.90
61253;DHT22;47127;47.516;8.596;2023-02-11T09:14:16;1.00;99.90
61253;DHT22;47127;47.516;8.596;2023-02-11T09:16:42;1.00;99.90
61253;DHT22;47127;47.516;8.596;2023-02-11T09:19:08;1.00;99.90
61253;DHT22;47127;47.516;8.596;2023-02-11T09:21:34;0.90;99.90
61253;DHT22;47127;47.516;8.596;2023-02-11T09:24:00;1.20;99.90
61253;DHT22;47127;47.516;8.596;2023-02-11T09:26:28;1.30;99.90
61253;DHT22;47127;47.516;8.596;2023-02-11T09:28:55;1.40;99.90
61253;DHT22;47127;47.516;8.596;2023-02-11T09:31:23;1.50;99.90
61253;DHT22;47127;47.516;8.596;2023-02-11T09:33:51;1.50;99.90
61253;DHT22;47127;47.516;8.596;2023-02-11T09:36:24;1.50;99.90
61253;DHT22;47127;47.516;8.596;2023-02-11T09:38:50;1.60;99.90
61253;DHT22;47127;47.516;8.596;2023-02-11T09:43:57;1.70;99.90
61253;DHT22;47127;47.516;8.596;2023-02-11T09:46:24;1.70;99.90
61253;DHT22;47127;47.516;8.596;2023-02-11T09:48:52;1.80;99.90
61253;DHT22;47127;47.516;8.596;2023-02-11T09:51:41;1.90;99.90
61253;DHT22;47127;47.516;8.596;2023-02-11T09:54:30;2.00;99.90
61253;DHT22;47127;47.516;8.596;2023-02-11T09:56:58;2.30;99.90
61253;DHT22;47127;47.516;8.596;2023-02-11T09:59:24;2.40;99.90
61253;DHT22;47127;47.516;8.596;2023-02-11T10:01:54;2.40;99.90
61253;DHT22;47127;47.516;8.596;2023-02-11T10:04:47;2.60;99.90
61253;DHT22;47127;47.516;8.596;2023-02-11T10:09:52;2.80;99.90
61253;DHT22;47127;47.516;8.596;2023-02-11T10:18:17;3.00;99.90
61253;DHT22;47127;47.516;8.596;2023-02-11T10:23:43;3.00;99.90
61253;DHT22;47127;47.516;8.596;2023-02-11T10:26:12;3.10;99.90
61253;DHT22;47127;47.516;8.596;2023-02-11T10:28:41;3.20;99.90
61253;DHT22;47127;47.516;8.596;2023-02-11T10:31:21;3.20;99.90
61253;DHT22;47127;47.516;8.596;2023-02-11T10:33:59;3.30;99.90
61253;DHT22;47127;47.516;8.596;2023-02-11T10:36:29;3.40;99.90
61253;DHT22;47127;47.516;8.596;2023-02-11T10:38:57;3.50;99.90
61253;DHT22;47127;47.516;8.596;2023-02-11T10:41:31;3.60;99.90
61253;DHT22;47127;47.516;8.596;2023-02-11T10:44:00;3.50;99.90
61253;DHT22;47127;47.516;8.596;2023-02-11T10:46:31;3.40;99.90
61253;DHT22;47127;47.516;8.596;2023-02-11T10:48:58;3.40;99.90
61253;DHT22;47127;47.516;8.596;2023-02-11T10:51:29;3.40;99.90
61253;DHT22;47127;47.516;8.596;2023-02-11T10:56:40;3.50;99.90
61253;DHT22;47127;47.516;8.596;2023-02-11T10:59:26;3.60;99.90
61253;DHT22;47127;47.516;8.596;2023-02-11T11:01:57;3.80;99.90
61253;DHT22;47127;47.516;8.596;2023-02-11T11:04:38;3.90;99.90
61253;DHT22;47127;47.516;8.596;2023-02-11T11:07:25;4.10;99.90
61253;DHT22;47127;47.516;8.596;2023-02-11T11:10:05;4.10;99.90
61253;DHT22;47127;47.516;8.596;2023-02-11T11:12:46;4.10;99.90
61253;DHT22;47127;47.516;8.596;2023-02-11T11:17:50;4.20;99.90
61253;DHT22;47127;47.516;8.596;2023-02-11T11:20:29;4.40;99.90
61253;DHT22;47127;47.516;8.596;2023-02-11T11:23:16;4.50;99.90
61253;DHT22;47127;47.516;8.596;2023-02-11T11:25:45;4.70;99.90
61253;DHT22;47127;47.516;8.596;2023-02-11T11:28:25;4.80;99.90
61253;DHT22;47127;47.516;8.596;2023-02-11T11:30:54;4.90;99.90
61253;DHT22;47127;47.516;8.596;2023-02-11T11:33:25;5.00;99.90
61253;DHT22;47127;47.516;8.596;2023-02-11T11:36:08;5.10;99.90
61253;DHT22;47127;47.516;8.596;2023-02-11T11:38:37;5.10;99.90
61253;DHT22;47127;47.516;8.596;2023-02-11T11:44:03;5.50;99.90
61253;DHT22;47127;47.516;8.596;2023-02-11T11:46:35;5.50;99.90
61253;DHT22;47127;47.516;8.596;2023-02-11T11:51:35;5.90;98.70
61253;DHT22;47127;47.516;8.596;2023-02-11T11:54:07;5.90;98.00
61253;DHT22;47127;47.516;8.596;2023-02-11T11:56:36;6.00;97.40
61253;DHT22;47127;47.516;8.596;2023-02-11T11:59:12;6.20;96.10
61253;DHT22;47127;47.516;8.596;2023-02-11T12:12:42;6.70;91.70
61253;DHT22;47127;47.516;8.596;2023-02-11T12:16:03;6.70;91.60
61253;DHT22;47127;47.516;8.596;2023-02-11T12:18:33;7.10;90.50
61253;DHT22;47127;47.516;8.596;2023-02-11T12:21:27;7.10;90.90
61253;DHT22;47127;47.516;8.596;2023-02-11T12:24:14;7.30;91.20
61253;DHT22;47127;47.516;8.596;2023-02-11T12:26:48;7.30;90.90
61253;DHT22;47127;47.516;8.596;2023-02-11T12:32:09;7.70;90.00
61253;DHT22;47127;47.516;8.596;2023-02-11T12:45:31;7.80;89.20
61253;DHT22;47127;47.516;8.596;2023-02-11T12:48:11;8.10;87.30
61253;DHT22;47127;47.516;8.596;2023-02-11T12:54:06;8.20;86.30
61253;DHT22;47127;47.516;8.596;2023-02-11T12:56:14;8.50;86.30
61253;DHT22;47127;47.516;8.596;2023-02-11T12:58:42;8.70;84.60
61253;DHT22;47127;47.516;8.596;2023-02-11T13:01:15;8.40;83.80
61253;DHT22;47127;47.516;8.596;2023-02-11T13:03:51;8.20;84.30
61253;DHT22;47127;47.516;8.596;2023-02-11T13:06:27;8.30;83.40
61253;DHT22;47127;47.516;8.596;2023-02-11T13:08:58;8.50;83.70
61253;DHT22;47127;47.516;8.596;2023-02-11T13:11:27;8.70;82.80
61253;DHT22;47127;47.516;8.596;2023-02-11T13:14:03;8.90;82.50
61253;DHT22;47127;47.516;8.596;2023-02-11T13:16:46;9.20;82.00
61253;DHT22;47127;47.516;8.596;2023-02-11T13:37:55;9.20;75.40
61253;DHT22;47127;47.516;8.596;2023-02-11T13:40:25;9.40;74.70
61253;DHT22;47127;47.516;8.596;2023-02-11T13:43:00;9.70;74.50
61253;DHT22;47127;47.516;8.596;2023-02-11T13:47:57;9.90;73.30
61253;DHT22;47127;47.516;8.596;2023-02-11T13:50:24;10.10;72.10
61253;DHT22;47127;47.516;8.596;2023-02-11T13:53:02;10.10;71.10
61253;DHT22;47127;47.516;8.596;2023-02-11T13:55:30;10.20;71.40
61253;DHT22;47127;47.516;8.596;2023-02-11T13:58:32;10.30;70.90
61253;DHT22;47127;47.516;8.596;2023-02-11T14:01:00;10.60;70.70
61253;DHT22;47127;47.516;8.596;2023-02-11T14:03:32;10.60;69.60
61253;DHT22;47127;47.516;8.596;2023-02-11T14:06:19;10.40;69.30
61253;DHT22;47127;47.516;8.596;2023-02-11T14:11:47;10.50;68.80
61253;DHT22;47127;47.516;8.596;2023-02-11T14:14:30;10.80;67.70
61253;DHT22;47127;47.516;8.596;2023-02-11T14:19:40;11.00;63.10
61253;DHT22;47127;47.516;8.596;2023-02-11T14:27:36;11.00;63.70
61253;DHT22;47127;47.516;8.596;2023-02-11T14:30:09;11.00;63.80
61253;DHT22;47127;47.516;8.596;2023-02-11T14:33:12;11.00;62.80
61253;DHT22;47127;47.516;8.596;2023-02-11T14:38:55;11.50;59.20
61253;DHT22;47127;47.516;8.596;2023-02-11T14:41:28;11.50;60.10
61253;DHT22;47127;47.516;8.596;2023-02-11T14:44:03;11.60;58.70
61253;DHT22;47127;47.516;8.596;2023-02-11T14:46:31;11.70;58.10
61253;DHT22;47127;47.516;8.596;2023-02-11T14:49:00;11.60;57.70
61253;DHT22;47127;47.516;8.596;2023-02-11T14:51:30;11.60;58.00
61253;DHT22;47127;47.516;8.596;2023-02-11T14:54:08;11.50;57.30
61253;DHT22;47127;47.516;8.596;2023-02-11T14:56:37;11.40;57.20
61253;DHT22;47127;47.516;8.596;2023-02-11T14:59:19;11.60;56.70
61253;DHT22;47127;47.516;8.596;2023-02-11T15:01:49;11.80;56.60
61253;DHT22;47127;47.516;8.596;2023-02-11T15:04:45;11.80;56.90
61253;DHT22;47127;47.516;8.596;2023-02-11T15:07:11;11.70;57.30
61253;DHT22;47127;47.516;8.596;2023-02-11T15:09:51;11.90;58.20
61253;DHT22;47127;47.516;8.596;2023-02-11T15:12:21;12.00;57.80
61253;DHT22;47127;47.516;8.596;2023-02-11T15:14:50;12.00;57.10
61253;DHT22;47127;47.516;8.596;2023-02-11T15:17:22;11.80;57.10
61253;DHT22;47127;47.516;8.596;2023-02-11T15:19:51;11.70;56.90
61253;DHT22;47127;47.516;8.596;2023-02-11T15:22:24;11.60;57.70
61253;DHT22;47127;47.516;8.596;2023-02-11T15:27:43;11.40;57.70
61253;DHT22;47127;47.516;8.596;2023-02-11T15:32:49;11.30;58.90
61253;DHT22;47127;47.516;8.596;2023-02-11T15:35:16;11.20;59.40
61253;DHT22;47127;47.516;8.596;2023-02-11T15:37:43;11.20;59.10
61253;DHT22;47127;47.516;8.596;2023-02-11T15:40:14;11.30;59.90
61253;DHT22;47127;47.516;8.596;2023-02-11T15:42:55;11.50;59.10
61253;DHT22;47127;47.516;8.596;2023-02-11T15:45:24;11.70;57.70
61253;DHT22;47127;47.516;8.596;2023-02-11T15:48:16;11.50;57.50
61253;DHT22;47127;47.516;8.596;2023-02-11T15:50:42;11.30;57.60
61253;DHT22;47127;47.516;8.596;2023-02-11T15:53:36;11.80;57.10
61253;DHT22;47127;47.516;8.596;2023-02-11T15:56:21;12.50;56.80
61253;DHT22;47127;47.516;8.596;2023-02-11T15:58:52;13.00;56.10
61253;DHT22;47127;47.516;8.596;2023-02-11T16:01:31;13.90;54.80
61253;DHT22;47127;47.516;8.596;2023-02-11T16:03:57;14.60;54.10
61253;DHT22;47127;47.516;8.596;2023-02-11T16:06:35;15.20;52.70
61253;DHT22;47127;47.516;8.596;2023-02-11T16:11:56;16.10;50.00
61253;DHT22;47127;47.516;8.596;2023-02-11T16:19:32;12.10;54.80
61253;DHT22;47127;47.516;8.596;2023-02-11T16:22:00;11.10;56.60
61253;DHT22;47127;47.516;8.596;2023-02-11T16:24:30;10.40;60.10
61253;DHT22;47127;47.516;8.596;2023-02-11T16:27:01;9.70;61.80
61253;DHT22;47127;47.516;8.596;2023-02-11T16:29:29;9.20;63.60
61253;DHT22;47127;47.516;8.596;2023-02-11T16:32:15;8.70;64.30
61253;DHT22;47127;47.516;8.596;2023-02-11T16:34:41;8.40;66.80
61253;DHT22;47127;47.516;8.596;2023-02-11T16:37:07;8.10;67.70
61253;DHT22;47127;47.516;8.596;2023-02-11T16:39:32;7.80;69.00
61253;DHT22;47127;47.516;8.596;2023-02-11T16:41:59;7.80;71.10
61253;DHT22;47127;47.516;8.596;2023-02-11T16:44:24;7.60;72.50
61253;DHT22;47127;47.516;8.596;2023-02-11T16:46:51;7.40;73.10
61253;DHT22;47127;47.516;8.596;2023-02-11T16:49:22;7.20;75.70
61253;DHT22;47127;47.516;8.596;2023-02-11T16:51:50;6.90;78.90
61253;DHT22;47127;47.516;8.596;2023-02-11T16:54:17;6.50;81.90
61253;DHT22;47127;47.516;8.596;2023-02-11T16:56:43;6.10;87.30
61253;DHT22;47127;47.516;8.596;2023-02-11T16:59:09;5.80;90.30
61253;DHT22;47127;47.516;8.596;2023-02-11T17:01:37;5.70;91.30
61253;DHT22;47127;47.516;8.596;2023-02-11T17:04:04;5.70;91.00
61253;DHT22;47127;47.516;8.596;2023-02-11T17:06:31;5.70;91.40
61253;DHT22;47127;47.516;8.596;2023-02-11T17:08:57;5.70;91.70
61253;DHT22;47127;47.516;8.596;2023-02-11T17:11:22;5.70;92.30
61253;DHT22;47127;47.516;8.596;2023-02-11T17:13:48;5.70;92.20
61253;DHT22;47127;47.516;8.596;2023-02-11T17:16:19;5.60;92.50
61253;DHT22;47127;47.516;8.596;2023-02-11T17:18:45;5.40;93.20
61253;DHT22;47127;47.516;8.596;2023-02-11T17:21:11;5.30;93.70
61253;DHT22;47127;47.516;8.596;2023-02-11T17:23:37;5.20;94.20
61253;DHT22;47127;47.516;8.596;2023-02-11T17:26:03;5.20;94.80
61253;DHT22;47127;47.516;8.596;2023-02-11T17:28:28;5.10;95.10
61253;DHT22;47127;47.516;8.596;2023-02-11T17:30:54;5.10;95.50
61253;DHT22;47127;47.516;8.596;2023-02-11T17:33:20;5.10;96.10
61253;DHT22;47127;47.516;8.596;2023-02-11T17:35:46;5.00;95.80
61253;DHT22;47127;47.516;8.596;2023-02-11T17:38:11;4.90;96.60
61253;DHT22;47127;47.516;8.596;2023-02-11T17:40:37;4.70;97.00
61253;DHT22;47127;47.516;8.596;2023-02-11T17:43:02;4.70;97.00
61253;DHT22;47127;47.516;8.596;2023-02-11T17:45:28;4.70;97.40
61253;DHT22;47127;47.516;8.596;2023-02-11T17:47:54;4.70;97.90
61253;DHT22;47127;47.516;8.596;2023-02-11T17:50:19;4.60;98.50
61253;DHT22;47127;47.516;8.596;2023-02-11T17:52:45;4.40;99.00
61253;DHT22;47127;47.516;8.596;2023-02-11T17:55:10;4.30;98.90
61253;DHT22;47127;47.516;8.596;2023-02-11T17:57:36;4.20;98.90
61253;DHT22;47127;47.516;8.596;2023-02-11T18:00:03;4.10;99.20
61253;DHT22;47127;47.516;8.596;2023-02-11T18:02:30;4.00;99.60
61253;DHT22;47127;47.516;8.596;2023-02-11T18:04:56;3.80;99.90
61253;DHT22;47127;47.516;8.596;2023-02-11T18:07:23;3.80;99.90
61253;DHT22;47127;47.516;8.596;2023-02-11T18:09:49;3.70;99.90
61253;DHT22;47127;47.516;8.596;2023-02-11T18:12:16;3.70;99.90